createdAt,value
2019-02-17T00:04:04.186Z,3.68
2019-02-17T00:08:09.027Z,3.67
2019-02-17T00:12:13.295Z,3.62
2019-02-17T00:16:17.992Z,3.57
2019-02-17T00:20:22.274Z,3.55
2019-02-17T00:24:27.133Z,3.54
2019-02-17T00:28:31.421Z,3.52
2019-02-17T00:32:35.636Z,3.51
2019-02-17T00:36:39.923Z,3.48
2019-02-17T00:40:44.211Z,3.44
2019-02-17T00:44:48.648Z,3.41
2019-02-17T00:48:53.085Z,3.36
2019-02-17T00:52:57.460Z,3.29
2019-02-17T00:57:01.742Z,3.21
2019-02-17T01:01:06.056Z,3.14
2019-02-17T01:05:10.476Z,3.09
2019-02-17T01:09:14.785Z,3.00
2019-02-17T01:13:19.018Z,2.91
2019-02-17T01:17:23.278Z,2.85
2019-02-17T01:21:27.469Z,2.79
2019-02-17T01:25:31.718Z,2.76
2019-02-17T01:29:35.993Z,2.77
2019-02-17T01:33:40.250Z,2.78
2019-02-17T01:37:44.476Z,2.79
2019-02-17T01:41:48.672Z,2.76
2019-02-17T01:45:52.934Z,2.70
2019-02-17T01:49:57.240Z,2.65
2019-02-17T01:54:01.859Z,2.59
2019-02-17T01:58:06.131Z,2.56
2019-02-17T02:02:10.443Z,2.50
2019-02-17T02:06:14.740Z,2.39
2019-02-17T02:10:18.957Z,2.33
2019-02-17T02:14:23.162Z,2.30
2019-02-17T02:18:27.446Z,2.22
2019-02-17T02:22:31.930Z,2.14
2019-02-17T02:26:36.175Z,2.08
2019-02-17T02:30:40.986Z,2.06
2019-02-17T02:34:45.224Z,2.07
2019-02-17T02:38:49.403Z,2.12
2019-02-17T02:42:53.959Z,2.14
2019-02-17T02:46:58.277Z,2.14
2019-02-17T02:51:02.504Z,2.12
2019-02-17T02:55:06.972Z,2.11
2019-02-17T02:59:11.373Z,2.08
2019-02-17T03:03:15.613Z,2.05
2019-02-17T03:07:21.389Z,1.98
2019-02-17T03:11:25.693Z,1.91
2019-02-17T03:15:29.931Z,1.86
2019-02-17T03:19:34.490Z,1.84
2019-02-17T03:23:38.709Z,1.78
2019-02-17T03:27:42.945Z,1.74
2019-02-17T03:31:47.194Z,1.69
2019-02-17T03:35:51.450Z,1.64
2019-02-17T03:39:56.014Z,1.62
2019-02-17T03:44:00.568Z,1.57
2019-02-17T03:48:04.977Z,1.54
2019-02-17T03:52:09.137Z,1.54
2019-02-17T03:56:13.455Z,1.48
2019-02-17T04:00:17.772Z,1.42
2019-02-17T04:04:22.024Z,1.38
2019-02-17T04:08:26.307Z,1.36
2019-02-17T04:12:30.559Z,1.33
2019-02-17T04:16:34.741Z,1.33
2019-02-17T04:20:39.046Z,1.31
2019-02-17T04:24:43.291Z,1.28
2019-02-17T04:28:47.502Z,1.27
2019-02-17T04:32:51.756Z,1.26
2019-02-17T04:36:56.078Z,1.21
2019-02-17T04:41:00.319Z,1.20
2019-02-17T04:45:05.754Z,1.21
2019-02-17T04:49:10.029Z,1.20
2019-02-17T04:53:14.268Z,1.18
2019-02-17T04:57:18.449Z,1.15
2019-02-17T05:01:22.705Z,1.09
2019-02-17T05:05:26.936Z,1.06
2019-02-17T05:09:31.179Z,1.03
2019-02-17T05:13:35.356Z,1.02
2019-02-17T05:17:39.655Z,1.03
2019-02-17T05:21:43.918Z,1.02
2019-02-17T05:25:48.290Z,1.00
2019-02-17T05:29:52.532Z,1.02
2019-02-17T05:33:56.882Z,1.03
2019-02-17T05:38:01.218Z,1.04
2019-02-17T05:42:05.433Z,1.06
2019-02-17T05:46:09.628Z,1.05
2019-02-17T05:50:13.854Z,1.06
2019-02-17T05:54:18.105Z,1.04
2019-02-17T05:58:22.434Z,1.02
2019-02-17T06:02:26.652Z,1.00
2019-02-17T06:06:30.948Z,0.99
2019-02-17T06:10:35.124Z,0.93
2019-02-17T06:14:39.482Z,0.88
2019-02-17T06:18:44.034Z,0.82
2019-02-17T06:22:48.341Z,0.82
2019-02-17T06:26:52.551Z,0.83
2019-02-17T06:30:56.771Z,0.81
2019-02-17T06:35:01.011Z,0.79
2019-02-17T06:39:06.266Z,0.76
2019-02-17T06:43:10.458Z,0.74
2019-02-17T06:47:27.713Z,0.78
2019-02-17T06:51:31.940Z,0.78
2019-02-17T06:55:46.823Z,0.74
2019-02-17T06:59:52.922Z,0.74
2019-02-17T07:03:57.151Z,0.78
2019-02-17T07:08:01.340Z,0.82
2019-02-17T07:12:05.571Z,0.87
2019-02-17T07:16:10.109Z,0.93
2019-02-17T07:20:14.666Z,0.99
2019-02-17T07:24:18.899Z,1.06
2019-02-17T07:28:23.100Z,1.09
2019-02-17T07:32:27.399Z,1.12
2019-02-17T07:36:31.645Z,1.18
2019-02-17T07:40:35.867Z,1.28
2019-02-17T07:44:40.527Z,1.36
2019-02-17T07:48:44.980Z,1.45
2019-02-17T07:52:49.206Z,1.55
2019-02-17T07:56:53.470Z,1.65
2019-02-17T08:00:57.642Z,1.70
2019-02-17T08:05:02.260Z,1.80
2019-02-17T08:09:07.162Z,1.95
2019-02-17T08:13:11.396Z,2.11
2019-02-17T08:17:15.687Z,2.28
2019-02-17T08:21:19.880Z,2.43
2019-02-17T08:25:24.130Z,2.60
2019-02-17T08:29:28.385Z,2.74
2019-02-17T08:33:32.641Z,2.89
2019-02-17T08:37:36.835Z,3.04
2019-02-17T08:41:41.074Z,3.18
2019-02-17T08:45:45.381Z,3.37
2019-02-17T08:49:49.729Z,3.53
2019-02-17T08:53:53.955Z,3.68
2019-02-17T08:57:58.225Z,3.81
2019-02-17T09:02:05.869Z,4.00
2019-02-17T09:06:09.401Z,4.14
2019-02-17T09:10:13.673Z,4.30
2019-02-17T09:14:17.957Z,4.42
2019-02-17T09:18:22.131Z,4.55
2019-02-17T09:22:26.350Z,4.73
2019-02-17T09:26:30.638Z,4.84
2019-02-17T09:30:34.823Z,4.97
2019-02-17T09:34:39.056Z,5.10
2019-02-17T09:38:43.420Z,5.20
2019-02-17T09:42:47.651Z,5.34
2019-02-17T09:46:52.268Z,5.44
2019-02-17T09:50:56.508Z,5.57
2019-02-17T09:55:01.052Z,5.68
2019-02-17T09:59:05.808Z,5.78
2019-02-17T10:03:10.047Z,5.86
2019-02-17T10:07:14.244Z,5.91
2019-02-17T10:11:18.485Z,5.99
2019-02-17T10:15:22.717Z,6.11
2019-02-17T10:19:26.929Z,6.15
2019-02-17T10:23:31.189Z,6.27
2019-02-17T10:27:35.371Z,6.36
2019-02-17T10:31:39.660Z,6.48
2019-02-17T10:35:43.893Z,6.58
2019-02-17T10:39:48.164Z,6.69
2019-02-17T10:43:52.388Z,6.81
2019-02-17T10:47:56.604Z,6.91
2019-02-17T10:52:00.953Z,7.03
2019-02-17T10:56:05.246Z,7.16
2019-02-17T11:00:13.003Z,7.30
2019-02-17T11:04:17.209Z,7.35
2019-02-17T11:08:21.699Z,7.43
2019-02-17T11:12:25.913Z,7.49
2019-02-17T11:16:30.247Z,7.58
2019-02-17T11:20:34.931Z,7.67
2019-02-17T11:24:39.201Z,7.75
2019-02-17T11:28:43.447Z,7.85
2019-02-17T11:32:57.182Z,7.93
2019-02-17T11:36:53.929Z,8.01
2019-02-17T11:40:58.242Z,8.12
2019-02-17T11:45:05.220Z,8.19
2019-02-17T11:49:09.477Z,8.25
2019-02-17T11:53:13.730Z,8.35
2019-02-17T11:57:18.339Z,8.45
2019-02-17T12:01:22.581Z,8.59
2019-02-17T12:05:27.081Z,8.68
2019-02-17T12:10:17.649Z,8.80
2019-02-17T12:14:21.897Z,8.90
2019-02-17T12:18:26.203Z,8.97
2019-02-17T12:22:52.173Z,9.02
2019-02-17T12:27:03.978Z,9.16
2019-02-17T12:31:08.541Z,9.21
2019-02-17T12:35:12.723Z,9.28
2019-02-17T12:39:17.042Z,9.36
2019-02-17T12:43:21.312Z,9.42
2019-02-17T12:47:25.528Z,9.52
2019-02-17T12:51:29.817Z,9.52
2019-02-17T12:55:34.210Z,9.59
2019-02-17T12:59:38.803Z,9.65
2019-02-17T13:03:43.149Z,9.72
2019-02-17T13:07:47.488Z,9.84
2019-02-17T13:11:51.741Z,9.91
2019-02-17T13:15:56.000Z,9.98
2019-02-17T13:20:00.331Z,10.04
2019-02-17T13:24:04.556Z,10.06
2019-02-17T13:28:08.803Z,10.11
2019-02-17T13:32:13.038Z,10.18
2019-02-17T13:36:17.478Z,10.24
2019-02-17T13:40:21.743Z,10.27
2019-02-17T13:44:26.368Z,10.27
2019-02-17T13:48:30.620Z,10.30
2019-02-17T13:52:34.915Z,10.31
2019-02-17T13:56:39.915Z,10.35
2019-02-17T14:00:44.127Z,10.40
2019-02-17T14:04:48.549Z,10.45
2019-02-17T14:08:52.768Z,10.48
2019-02-17T14:12:57.119Z,10.53
2019-02-17T14:17:01.374Z,10.55
2019-02-17T14:21:05.622Z,10.60
2019-02-17T14:25:11.261Z,10.63
2019-02-17T14:29:15.657Z,10.65
2019-02-17T14:33:19.954Z,10.66
2019-02-17T14:37:24.227Z,10.68
2019-02-17T14:41:28.475Z,10.69
2019-02-17T14:45:32.693Z,10.69
2019-02-17T14:49:36.921Z,10.68
2019-02-17T14:53:41.230Z,10.68
2019-02-17T14:57:45.470Z,10.69
2019-02-17T15:01:50.006Z,10.69
2019-02-17T15:05:54.589Z,10.70
2019-02-17T15:09:58.801Z,10.70
2019-02-17T15:14:03.628Z,10.72
2019-02-17T15:18:07.887Z,10.73
2019-02-17T15:22:12.432Z,10.73
2019-02-17T15:26:16.697Z,10.72
2019-02-17T15:30:20.967Z,10.73
2019-02-17T15:34:25.249Z,10.70
2019-02-17T15:38:29.481Z,10.69
2019-02-17T15:42:33.702Z,10.67
2019-02-17T15:46:37.953Z,10.66
2019-02-17T15:50:42.138Z,10.63
2019-02-17T15:54:47.485Z,10.57
2019-02-17T15:58:51.797Z,10.50
2019-02-17T16:02:56.105Z,10.44
2019-02-17T16:07:00.594Z,10.41
2019-02-17T16:11:06.087Z,10.38
2019-02-17T16:15:12.530Z,10.34
2019-02-17T16:19:16.791Z,10.30
2019-02-17T16:23:21.027Z,10.26
2019-02-17T16:27:25.674Z,10.21
2019-02-17T16:31:29.919Z,10.12
2019-02-17T16:35:34.204Z,10.06
2019-02-17T16:39:38.435Z,9.97
2019-02-17T16:43:42.699Z,9.89
2019-02-17T16:47:47.002Z,9.78
2019-02-17T16:51:51.829Z,9.73
2019-02-17T16:55:56.084Z,9.64
2019-02-17T17:00:00.346Z,9.41
2019-02-17T17:04:04.549Z,9.24
2019-02-17T17:08:08.747Z,9.13
2019-02-17T17:12:13.398Z,9.02
2019-02-17T17:16:17.625Z,8.92
2019-02-17T17:20:21.939Z,8.79
2019-02-17T17:24:26.242Z,8.71
2019-02-17T17:28:30.426Z,8.68
2019-02-17T17:32:34.678Z,8.65
2019-02-17T17:36:39.012Z,8.56
2019-02-17T17:40:43.280Z,8.36
2019-02-17T17:44:47.496Z,8.23
2019-02-17T17:48:52.863Z,8.17
2019-02-17T17:52:57.045Z,8.10
2019-02-17T17:57:01.417Z,8.07
2019-02-17T18:01:07.803Z,8.05
2019-02-17T18:05:11.795Z,7.98
2019-02-17T18:09:16.030Z,7.89
2019-02-17T18:13:21.942Z,7.76
2019-02-17T18:17:26.365Z,7.65
2019-02-17T18:21:30.586Z,7.55
2019-02-17T18:25:34.838Z,7.49
2019-02-17T18:29:39.110Z,7.45
2019-02-17T18:33:43.354Z,7.32
2019-02-17T18:37:47.596Z,7.17
2019-02-17T18:41:51.794Z,7.09
2019-02-17T18:45:56.397Z,6.94
2019-02-17T18:50:00.594Z,6.87
2019-02-17T18:54:04.879Z,6.80
2019-02-17T18:58:09.217Z,6.88
2019-02-17T19:02:13.457Z,6.87
2019-02-17T19:06:17.741Z,6.74
2019-02-17T19:10:22.020Z,6.67
2019-02-17T19:14:26.768Z,6.59
2019-02-17T19:18:31.013Z,6.52
2019-02-17T19:22:35.384Z,6.47
2019-02-17T19:26:39.712Z,6.44
2019-02-17T19:30:43.975Z,6.34
2019-02-17T19:34:48.254Z,6.21
2019-02-17T19:38:52.604Z,6.11
2019-02-17T19:42:56.928Z,6.09
2019-02-17T19:47:01.234Z,5.99
2019-02-17T19:51:05.565Z,5.92
2019-02-17T19:55:10.395Z,5.89
2019-02-17T19:59:14.726Z,5.85
2019-02-17T20:03:34.215Z,5.75
2019-02-17T20:07:38.517Z,5.68
2019-02-17T20:11:42.896Z,5.60
2019-02-17T20:15:47.291Z,5.58
2019-02-17T20:19:51.515Z,5.57
2019-02-17T20:23:55.851Z,5.56
2019-02-17T20:28:00.159Z,5.51
2019-02-17T20:32:04.622Z,5.46
2019-02-17T20:36:08.957Z,5.37
2019-02-17T20:40:13.349Z,5.30
2019-02-17T20:44:17.817Z,5.25
2019-02-17T20:48:22.068Z,5.19
2019-02-17T20:52:26.326Z,5.14
2019-02-17T20:56:31.373Z,5.07
2019-02-17T21:00:35.881Z,5.01
2019-02-17T21:04:40.356Z,4.95
2019-02-17T21:08:44.614Z,4.87
2019-02-17T21:12:48.922Z,4.81
2019-02-17T21:16:53.203Z,4.74
2019-02-17T21:20:57.924Z,4.69
2019-02-17T21:25:02.429Z,4.66
2019-02-17T21:29:06.894Z,4.62
2019-02-17T21:33:11.243Z,4.60
2019-02-17T21:37:15.655Z,4.59
2019-02-17T21:41:20.077Z,4.56
2019-02-17T21:45:24.397Z,4.52
2019-02-17T21:49:28.663Z,4.46
2019-02-17T21:53:32.927Z,4.40
2019-02-17T21:57:37.170Z,4.38
2019-02-17T22:01:41.393Z,4.32
2019-02-17T22:05:45.641Z,4.25
2019-02-17T22:09:49.978Z,4.13
2019-02-17T22:13:54.224Z,4.07
2019-02-17T22:17:58.410Z,4.08
2019-02-17T22:22:02.752Z,4.05
2019-02-17T22:26:07.080Z,4.03
2019-02-17T22:30:11.799Z,4.02
2019-02-17T22:34:15.990Z,4.03
2019-02-17T22:38:20.226Z,3.96
2019-02-17T22:42:24.455Z,3.90
2019-02-17T22:46:28.714Z,3.85
2019-02-17T22:50:32.895Z,3.83
2019-02-17T22:54:37.195Z,3.82
2019-02-17T22:58:41.456Z,3.81
2019-02-17T23:02:45.739Z,3.76
2019-02-17T23:06:54.137Z,3.73
2019-02-17T23:10:55.920Z,3.66
2019-02-17T23:15:00.324Z,3.54
2019-02-17T23:19:04.941Z,3.45
2019-02-17T23:23:09.260Z,3.41
2019-02-17T23:27:13.494Z,3.38
2019-02-17T23:31:17.718Z,3.31
2019-02-17T23:35:21.977Z,3.29
2019-02-17T23:39:26.211Z,3.20
2019-02-17T23:43:30.480Z,3.16
2019-02-17T23:47:34.641Z,3.11
2019-02-17T23:51:38.876Z,3.08
2019-02-17T23:55:43.139Z,3.07
2019-02-17T23:59:47.388Z,3.07
